sensor_id;sensor_type;location;lat;lon;timestamp;P1;durP1;ratioP1;P2;durP2;ratioP2
47329;SDS011;33060;50.178;7.570;2023-12-14T00:00:52;5.57;;;2.63;;
47329;SDS011;33060;50.178;7.570;2023-12-14T00:05:46;5.70;;;2.72;;
47329;SDS011;33060;50.178;7.570;2023-12-14T00:08:12;5.85;;;2.72;;
47329;SDS011;33060;50.178;7.570;2023-12-14T00:10:39;6.90;;;3.10;;
47329;SDS011;33060;50.178;7.570;2023-12-14T00:13:06;6.28;;;3.03;;
47329;SDS011;33060;50.178;7.570;2023-12-14T00:15:34;5.70;;;2.65;;
47329;SDS011;33060;50.178;7.570;2023-12-14T00:18:00;6.10;;;2.78;;
47329;SDS011;33060;50.178;7.570;2023-12-14T00:20:27;5.13;;;2.80;;
47329;SDS011;33060;50.178;7.570;2023-12-14T00:22:54;5.22;;;1.77;;
47329;SDS011;33060;50.178;7.570;2023-12-14T00:27:47;6.07;;;2.42;;
47329;SDS011;33060;50.178;7.570;2023-12-14T00:30:14;7.28;;;3.58;;
47329;SDS011;33060;50.178;7.570;2023-12-14T00:32:41;7.97;;;3.33;;
47329;SDS011;33060;50.178;7.570;2023-12-14T00:35:07;6.35;;;3.28;;
47329;SDS011;33060;50.178;7.570;2023-12-14T00:37:34;9.48;;;3.65;;
47329;SDS011;33060;50.178;7.570;2023-12-14T00:40:01;7.93;;;3.50;;
47329;SDS011;33060;50.178;7.570;2023-12-14T00:42:29;7.30;;;2.58;;
47329;SDS011;33060;50.178;7.570;2023-12-14T00:44:56;6.82;;;3.35;;
47329;SDS011;33060;50.178;7.570;2023-12-14T00:47:23;5.60;;;2.00;;
47329;SDS011;33060;50.178;7.570;2023-12-14T00:49:49;9.02;;;3.35;;
47329;SDS011;33060;50.178;7.570;2023-12-14T00:52:16;7.10;;;2.33;;
47329;SDS011;33060;50.178;7.570;2023-12-14T00:54:43;7.20;;;2.83;;
47329;SDS011;33060;50.178;7.570;2023-12-14T00:57:09;7.68;;;2.67;;
47329;SDS011;33060;50.178;7.570;2023-12-14T00:59:36;5.32;;;2.42;;
47329;SDS011;33060;50.178;7.570;2023-12-14T01:02:03;9.75;;;2.47;;
47329;SDS011;33060;50.178;7.570;2023-12-14T01:04:30;8.45;;;3.58;;
47329;SDS011;33060;50.178;7.570;2023-12-14T01:06:57;6.50;;;2.50;;
47329;SDS011;33060;50.178;7.570;2023-12-14T01:11:50;5.18;;;2.38;;
47329;SDS011;33060;50.178;7.570;2023-12-14T01:14:17;5.38;;;2.40;;
47329;SDS011;33060;50.178;7.570;2023-12-14T01:16:44;6.93;;;2.90;;
47329;SDS011;33060;50.178;7.570;2023-12-14T01:19:10;9.23;;;2.65;;
47329;SDS011;33060;50.178;7.570;2023-12-14T01:21:37;5.90;;;3.05;;
47329;SDS011;33060;50.178;7.570;2023-12-14T01:24:04;7.45;;;2.85;;
47329;SDS011;33060;50.178;7.570;2023-12-14T01:26:31;4.72;;;2.10;;
47329;SDS011;33060;50.178;7.570;2023-12-14T01:28:58;6.22;;;2.60;;
47329;SDS011;33060;50.178;7.570;2023-12-14T01:31:28;6.50;;;2.75;;
47329;SDS011;33060;50.178;7.570;2023-12-14T01:33:54;6.95;;;2.38;;
47329;SDS011;33060;50.178;7.570;2023-12-14T01:36:21;5.82;;;3.15;;
47329;SDS011;33060;50.178;7.570;2023-12-14T01:38:49;6.15;;;2.88;;
47329;SDS011;33060;50.178;7.570;2023-12-14T01:41:16;6.35;;;2.72;;
47329;SDS011;33060;50.178;7.570;2023-12-14T01:46:10;6.50;;;2.13;;
47329;SDS011;33060;50.178;7.570;2023-12-14T01:48:37;5.32;;;2.42;;
47329;SDS011;33060;50.178;7.570;2023-12-14T01:51:04;7.20;;;2.63;;
47329;SDS011;33060;50.178;7.570;2023-12-14T01:53:31;5.47;;;3.17;;
47329;SDS011;33060;50.178;7.570;2023-12-14T01:55:57;6.97;;;3.00;;
47329;SDS011;33060;50.178;7.570;2023-12-14T01:58:24;6.07;;;2.60;;
47329;SDS011;33060;50.178;7.570;2023-12-14T02:01:12;7.25;;;2.50;;
47329;SDS011;33060;50.178;7.570;2023-12-14T02:04:03;4.93;;;2.55;;
47329;SDS011;33060;50.178;7.570;2023-12-14T02:06:33;6.18;;;2.20;;
47329;SDS011;33060;50.178;7.570;2023-12-14T02:08:59;6.40;;;2.45;;
47329;SDS011;33060;50.178;7.570;2023-12-14T02:11:26;9.18;;;3.13;;
47329;SDS011;33060;50.178;7.570;2023-12-14T02:16:19;16.77;;;3.95;;
47329;SDS011;33060;50.178;7.570;2023-12-14T02:18:46;47.90;;;6.75;;
47329;SDS011;33060;50.178;7.570;2023-12-14T02:23:43;48.80;;;7.35;;
47329;SDS011;33060;50.178;7.570;2023-12-14T02:26:13;44.88;;;6.47;;
47329;SDS011;33060;50.178;7.570;2023-12-14T02:28:40;58.65;;;8.13;;
47329;SDS011;33060;50.178;7.570;2023-12-14T02:33:33;84.28;;;9.45;;
47329;SDS011;33060;50.178;7.570;2023-12-14T02:36:00;80.13;;;9.38;;
47329;SDS011;33060;50.178;7.570;2023-12-14T02:38:27;43.97;;;6.15;;
47329;SDS011;33060;50.178;7.570;2023-12-14T02:40:54;35.92;;;5.18;;
47329;SDS011;33060;50.178;7.570;2023-12-14T02:43:20;20.70;;;5.20;;
47329;SDS011;33060;50.178;7.570;2023-12-14T02:45:49;31.92;;;5.80;;
47329;SDS011;33060;50.178;7.570;2023-12-14T02:48:16;58.35;;;8.40;;
47329;SDS011;33060;50.178;7.570;2023-12-14T02:53:09;25.08;;;5.05;;
47329;SDS011;33060;50.178;7.570;2023-12-14T02:58:03;24.38;;;4.90;;
47329;SDS011;33060;50.178;7.570;2023-12-14T03:02:56;93.60;;;11.55;;
47329;SDS011;33060;50.178;7.570;2023-12-14T03:05:23;87.43;;;9.00;;
47329;SDS011;33060;50.178;7.570;2023-12-14T03:10:17;11.30;;;3.25;;
47329;SDS011;33060;50.178;7.570;2023-12-14T03:12:43;24.77;;;5.30;;
47329;SDS011;33060;50.178;7.570;2023-12-14T03:15:10;19.95;;;4.57;;
47329;SDS011;33060;50.178;7.570;2023-12-14T03:17:37;23.13;;;5.65;;
47329;SDS011;33060;50.178;7.570;2023-12-14T03:20:03;15.98;;;5.10;;
47329;SDS011;33060;50.178;7.570;2023-12-14T03:22:32;10.77;;;3.97;;
47329;SDS011;33060;50.178;7.570;2023-12-14T03:24:59;17.42;;;5.05;;
47329;SDS011;33060;50.178;7.570;2023-12-14T03:27:26;15.73;;;4.95;;
47329;SDS011;33060;50.178;7.570;2023-12-14T03:29:53;14.30;;;4.65;;
47329;SDS011;33060;50.178;7.570;2023-12-14T03:32:19;13.57;;;4.72;;
47329;SDS011;33060;50.178;7.570;2023-12-14T03:34:46;14.80;;;4.93;;
47329;SDS011;33060;50.178;7.570;2023-12-14T03:37:12;13.60;;;4.70;;
47329;SDS011;33060;50.178;7.570;2023-12-14T03:39:39;18.10;;;5.00;;
47329;SDS011;33060;50.178;7.570;2023-12-14T03:42:06;12.00;;;4.72;;
47329;SDS011;33060;50.178;7.570;2023-12-14T03:44:32;15.05;;;5.63;;
47329;SDS011;33060;50.178;7.570;2023-12-14T03:46:59;22.95;;;5.47;;
47329;SDS011;33060;50.178;7.570;2023-12-14T03:49:26;19.05;;;6.13;;
47329;SDS011;33060;50.178;7.570;2023-12-14T03:51:53;16.90;;;5.32;;
47329;SDS011;33060;50.178;7.570;2023-12-14T03:54:20;16.45;;;4.93;;
47329;SDS011;33060;50.178;7.570;2023-12-14T03:56:46;14.95;;;5.53;;
47329;SDS011;33060;50.178;7.570;2023-12-14T03:59:13;13.45;;;4.68;;
47329;SDS011;33060;50.178;7.570;2023-12-14T04:01:40;11.30;;;4.50;;
47329;SDS011;33060;50.178;7.570;2023-12-14T04:04:07;14.02;;;5.60;;
47329;SDS011;33060;50.178;7.570;2023-12-14T04:06:33;18.80;;;6.47;;
47329;SDS011;33060;50.178;7.570;2023-12-14T04:11:27;19.38;;;6.70;;
47329;SDS011;33060;50.178;7.570;2023-12-14T04:13:54;23.63;;;7.80;;
47329;SDS011;33060;50.178;7.570;2023-12-14T04:16:21;18.98;;;6.95;;
47329;SDS011;33060;50.178;7.570;2023-12-14T04:18:51;16.95;;;6.45;;
47329;SDS011;33060;50.178;7.570;2023-12-14T04:23:45;20.65;;;6.85;;
47329;SDS011;33060;50.178;7.570;2023-12-14T04:28:40;16.38;;;7.00;;
47329;SDS011;33060;50.178;7.570;2023-12-14T04:31:07;15.07;;;6.15;;
47329;SDS011;33060;50.178;7.570;2023-12-14T04:33:34;15.40;;;5.75;;
47329;SDS011;33060;50.178;7.570;2023-12-14T04:36:00;13.43;;;5.38;;
47329;SDS011;33060;50.178;7.570;2023-12-14T04:38:27;16.65;;;5.93;;
47329;SDS011;33060;50.178;7.570;2023-12-14T04:40:54;16.67;;;7.05;;
47329;SDS011;33060;50.178;7.570;2023-12-14T04:43:20;19.40;;;6.50;;
47329;SDS011;33060;50.178;7.570;2023-12-14T04:45:47;14.32;;;5.97;;
47329;SDS011;33060;50.178;7.570;2023-12-14T04:48:14;17.20;;;6.43;;
47329;SDS011;33060;50.178;7.570;2023-12-14T04:53:08;14.48;;;5.57;;
47329;SDS011;33060;50.178;7.570;2023-12-14T04:55:34;20.02;;;7.20;;
47329;SDS011;33060;50.178;7.570;2023-12-14T04:58:01;14.80;;;6.60;;
47329;SDS011;33060;50.178;7.570;2023-12-14T05:00:28;20.80;;;6.97;;
47329;SDS011;33060;50.178;7.570;2023-12-14T05:02:55;19.50;;;6.75;;
47329;SDS011;33060;50.178;7.570;2023-12-14T05:05:22;17.98;;;7.35;;
47329;SDS011;33060;50.178;7.570;2023-12-14T05:07:49;32.13;;;10.20;;
47329;SDS011;33060;50.178;7.570;2023-12-14T05:10:15;16.83;;;6.10;;
47329;SDS011;33060;50.178;7.570;2023-12-14T05:15:09;32.35;;;8.63;;
47329;SDS011;33060;50.178;7.570;2023-12-14T05:17:37;59.38;;;9.20;;
47329;SDS011;33060;50.178;7.570;2023-12-14T05:20:04;35.22;;;7.90;;
47329;SDS011;33060;50.178;7.570;2023-12-14T05:22:34;17.25;;;5.78;;
47329;SDS011;33060;50.178;7.570;2023-12-14T05:25:01;27.23;;;6.85;;
47329;SDS011;33060;50.178;7.570;2023-12-14T05:27:29;18.48;;;5.78;;
47329;SDS011;33060;50.178;7.570;2023-12-14T05:29:56;24.95;;;7.30;;
47329;SDS011;33060;50.178;7.570;2023-12-14T05:32:22;18.10;;;5.70;;
47329;SDS011;33060;50.178;7.570;2023-12-14T05:34:49;26.90;;;7.43;;
47329;SDS011;33060;50.178;7.570;2023-12-14T05:37:16;13.02;;;4.10;;
47329;SDS011;33060;50.178;7.570;2023-12-14T05:42:09;14.82;;;4.47;;
47329;SDS011;33060;50.178;7.570;2023-12-14T05:44:36;22.08;;;6.18;;
47329;SDS011;33060;50.178;7.570;2023-12-14T05:47:03;16.42;;;5.25;;
47329;SDS011;33060;50.178;7.570;2023-12-14T05:51:58;25.33;;;6.78;;
47329;SDS011;33060;50.178;7.570;2023-12-14T05:54:25;43.60;;;9.60;;
47329;SDS011;33060;50.178;7.570;2023-12-14T05:56:52;20.95;;;6.50;;
47329;SDS011;33060;50.178;7.570;2023-12-14T05:59:18;19.20;;;7.07;;
47329;SDS011;33060;50.178;7.570;2023-12-14T06:01:45;34.50;;;9.43;;
47329;SDS011;33060;50.178;7.570;2023-12-14T06:04:12;39.72;;;10.55;;
47329;SDS011;33060;50.178;7.570;2023-12-14T06:06:39;46.42;;;10.95;;
47329;SDS011;33060;50.178;7.570;2023-12-14T06:09:06;24.92;;;8.38;;
47329;SDS011;33060;50.178;7.570;2023-12-14T06:11:33;35.08;;;8.25;;
47329;SDS011;33060;50.178;7.570;2023-12-14T06:14:00;39.25;;;9.80;;
47329;SDS011;33060;50.178;7.570;2023-12-14T06:16:27;29.88;;;9.32;;
47329;SDS011;33060;50.178;7.570;2023-12-14T06:18:53;33.30;;;9.68;;
47329;SDS011;33060;50.178;7.570;2023-12-14T06:23:47;21.23;;;7.32;;
47329;SDS011;33060;50.178;7.570;2023-12-14T06:26:17;33.03;;;10.38;;
47329;SDS011;33060;50.178;7.570;2023-12-14T06:28:44;25.40;;;9.70;;
47329;SDS011;33060;50.178;7.570;2023-12-14T06:31:14;24.17;;;9.43;;
47329;SDS011;33060;50.178;7.570;2023-12-14T06:33:41;29.88;;;10.38;;
47329;SDS011;33060;50.178;7.570;2023-12-14T06:38:37;23.23;;;8.70;;
47329;SDS011;33060;50.178;7.570;2023-12-14T06:41:05;25.50;;;10.48;;
47329;SDS011;33060;50.178;7.570;2023-12-14T06:43:33;25.13;;;9.82;;
47329;SDS011;33060;50.178;7.570;2023-12-14T06:45:59;21.85;;;8.48;;
47329;SDS011;33060;50.178;7.570;2023-12-14T06:50:53;21.98;;;8.40;;
47329;SDS011;33060;50.178;7.570;2023-12-14T06:53:21;24.20;;;9.25;;
47329;SDS011;33060;50.178;7.570;2023-12-14T06:55:48;22.02;;;9.95;;
47329;SDS011;33060;50.178;7.570;2023-12-14T06:58:15;25.15;;;10.15;;
47329;SDS011;33060;50.178;7.570;2023-12-14T07:03:08;20.05;;;8.60;;
47329;SDS011;33060;50.178;7.570;2023-12-14T07:08:02;27.05;;;10.80;;
47329;SDS011;33060;50.178;7.570;2023-12-14T07:12:56;18.10;;;8.02;;
47329;SDS011;33060;50.178;7.570;2023-12-14T07:15:23;27.60;;;11.77;;
47329;SDS011;33060;50.178;7.570;2023-12-14T07:17:50;19.80;;;9.20;;
47329;SDS011;33060;50.178;7.570;2023-12-14T07:20:16;28.92;;;10.50;;
47329;SDS011;33060;50.178;7.570;2023-12-14T07:22:43;26.75;;;9.85;;
47329;SDS011;33060;50.178;7.570;2023-12-14T07:25:10;28.33;;;9.93;;
47329;SDS011;33060;50.178;7.570;2023-12-14T07:27:36;26.80;;;8.18;;
47329;SDS011;33060;50.178;7.570;2023-12-14T07:30:03;78.82;;;14.70;;
47329;SDS011;33060;50.178;7.570;2023-12-14T07:32:30;35.30;;;10.45;;
47329;SDS011;33060;50.178;7.570;2023-12-14T07:34:57;41.92;;;11.07;;
47329;SDS011;33060;50.178;7.570;2023-12-14T07:37:24;32.63;;;10.85;;
47329;SDS011;33060;50.178;7.570;2023-12-14T07:39:51;39.25;;;11.30;;
47329;SDS011;33060;50.178;7.570;2023-12-14T07:42:18;32.13;;;10.05;;
47329;SDS011;33060;50.178;7.570;2023-12-14T07:44:47;46.22;;;10.77;;
47329;SDS011;33060;50.178;7.570;2023-12-14T07:47:14;20.05;;;7.82;;
47329;SDS011;33060;50.178;7.570;2023-12-14T07:49:40;24.33;;;8.77;;
47329;SDS011;33060;50.178;7.570;2023-12-14T07:52:07;44.17;;;12.77;;
47329;SDS011;33060;50.178;7.570;2023-12-14T07:54:34;18.10;;;7.45;;
47329;SDS011;33060;50.178;7.570;2023-12-14T07:57:01;25.67;;;8.82;;
47329;SDS011;33060;50.178;7.570;2023-12-14T07:59:28;21.67;;;8.35;;
47329;SDS011;33060;50.178;7.570;2023-12-14T08:01:56;18.55;;;7.28;;
47329;SDS011;33060;50.178;7.570;2023-12-14T08:04:23;13.32;;;5.88;;
47329;SDS011;33060;50.178;7.570;2023-12-14T08:09:17;22.80;;;7.85;;
47329;SDS011;33060;50.178;7.570;2023-12-14T08:11:44;17.70;;;7.88;;
47329;SDS011;33060;50.178;7.570;2023-12-14T08:14:10;22.15;;;8.77;;
47329;SDS011;33060;50.178;7.570;2023-12-14T08:16:37;20.05;;;7.65;;
47329;SDS011;33060;50.178;7.570;2023-12-14T08:19:04;16.63;;;7.57;;
47329;SDS011;33060;50.178;7.570;2023-12-14T08:21:31;20.35;;;7.85;;
47329;SDS011;33060;50.178;7.570;2023-12-14T08:23:57;16.88;;;6.88;;
47329;SDS011;33060;50.178;7.570;2023-12-14T08:26:24;16.23;;;7.00;;
47329;SDS011;33060;50.178;7.570;2023-12-14T08:28:51;25.48;;;9.27;;
47329;SDS011;33060;50.178;7.570;2023-12-14T08:31:17;20.83;;;8.30;;
47329;SDS011;33060;50.178;7.570;2023-12-14T08:33:44;21.58;;;9.40;;
47329;SDS011;33060;50.178;7.570;2023-12-14T08:36:15;28.40;;;9.73;;
47329;SDS011;33060;50.178;7.570;2023-12-14T08:38:43;28.65;;;10.27;;
47329;SDS011;33060;50.178;7.570;2023-12-14T08:41:13;23.02;;;8.40;;
47329;SDS011;33060;50.178;7.570;2023-12-14T08:43:42;23.33;;;8.55;;
47329;SDS011;33060;50.178;7.570;2023-12-14T08:46:09;20.13;;;9.48;;
47329;SDS011;33060;50.178;7.570;2023-12-14T08:48:36;21.42;;;8.02;;
47329;SDS011;33060;50.178;7.570;2023-12-14T08:51:04;18.35;;;7.28;;
47329;SDS011;33060;50.178;7.570;2023-12-14T08:53:31;27.27;;;8.07;;
47329;SDS011;33060;50.178;7.570;2023-12-14T08:55:58;32.00;;;8.82;;
47329;SDS011;33060;50.178;7.570;2023-12-14T08:58:24;16.75;;;6.68;;
47329;SDS011;33060;50.178;7.570;2023-12-14T09:00:51;24.13;;;8.20;;
47329;SDS011;33060;50.178;7.570;2023-12-14T09:03:20;23.45;;;7.28;;
47329;SDS011;33060;50.178;7.570;2023-12-14T09:05:48;19.52;;;6.72;;
47329;SDS011;33060;50.178;7.570;2023-12-14T09:10:41;18.60;;;5.78;;
47329;SDS011;33060;50.178;7.570;2023-12-14T09:13:08;29.48;;;7.93;;
47329;SDS011;33060;50.178;7.570;2023-12-14T09:15:35;19.50;;;5.75;;
47329;SDS011;33060;50.178;7.570;2023-12-14T09:18:01;20.85;;;6.22;;
47329;SDS011;33060;50.178;7.570;2023-12-14T09:20:29;27.48;;;7.38;;
47329;SDS011;33060;50.178;7.570;2023-12-14T09:22:56;22.70;;;6.50;;
47329;SDS011;33060;50.178;7.570;2023-12-14T09:25:22;34.25;;;7.88;;
47329;SDS011;33060;50.178;7.570;2023-12-14T09:27:49;21.50;;;6.43;;
47329;SDS011;33060;50.178;7.570;2023-12-14T09:30:16;24.63;;;6.65;;
47329;SDS011;33060;50.178;7.570;2023-12-14T09:32:44;24.20;;;6.97;;
47329;SDS011;33060;50.178;7.570;2023-12-14T09:35:11;20.60;;;6.70;;
47329;SDS011;33060;50.178;7.570;2023-12-14T09:37:37;17.17;;;5.53;;
47329;SDS011;33060;50.178;7.570;2023-12-14T09:40:05;12.98;;;5.20;;
47329;SDS011;33060;50.178;7.570;2023-12-14T09:42:37;15.55;;;5.47;;
47329;SDS011;33060;50.178;7.570;2023-12-14T09:45:08;13.85;;;4.78;;
47329;SDS011;33060;50.178;7.570;2023-12-14T09:47:36;15.88;;;6.60;;
47329;SDS011;33060;50.178;7.570;2023-12-14T09:50:04;13.20;;;4.72;;
47329;SDS011;33060;50.178;7.570;2023-12-14T09:52:32;11.27;;;4.38;;
47329;SDS011;33060;50.178;7.570;2023-12-14T09:55:00;11.63;;;3.83;;
47329;SDS011;33060;50.178;7.570;2023-12-14T09:57:30;11.90;;;4.70;;
47329;SDS011;33060;50.178;7.570;2023-12-14T09:59:58;14.93;;;4.90;;
47329;SDS011;33060;50.178;7.570;2023-12-14T10:02:35;12.15;;;4.40;;
47329;SDS011;33060;50.178;7.570;2023-12-14T10:05:15;13.20;;;6.30;;
47329;SDS011;33060;50.178;7.570;2023-12-14T10:07:42;13.13;;;4.50;;
47329;SDS011;33060;50.178;7.570;2023-12-14T10:10:11;10.32;;;4.03;;
47329;SDS011;33060;50.178;7.570;2023-12-14T10:12:54;13.45;;;5.90;;
47329;SDS011;33060;50.178;7.570;2023-12-14T10:15:21;10.38;;;3.92;;
47329;SDS011;33060;50.178;7.570;2023-12-14T10:17:51;10.93;;;5.20;;
47329;SDS011;33060;50.178;7.570;2023-12-14T10:20:21;13.88;;;4.32;;
47329;SDS011;33060;50.178;7.570;2023-12-14T10:22:51;14.55;;;4.88;;
47329;SDS011;33060;50.178;7.570;2023-12-14T10:25:19;12.70;;;5.07;;
47329;SDS011;33060;50.178;7.570;2023-12-14T10:27:46;9.38;;;3.88;;
47329;SDS011;33060;50.178;7.570;2023-12-14T10:30:14;13.27;;;4.20;;
47329;SDS011;33060;50.178;7.570;2023-12-14T10:32:41;11.23;;;4.15;;
47329;SDS011;33060;50.178;7.570;2023-12-14T10:37:36;10.48;;;4.03;;
47329;SDS011;33060;50.178;7.570;2023-12-14T10:40:05;10.80;;;3.53;;
47329;SDS011;33060;50.178;7.570;2023-12-14T10:42:33;9.15;;;3.25;;
47329;SDS011;33060;50.178;7.570;2023-12-14T10:45:02;9.27;;;3.33;;
47329;SDS011;33060;50.178;7.570;2023-12-14T10:47:44;8.13;;;2.80;;
47329;SDS011;33060;50.178;7.570;2023-12-14T10:50:14;10.52;;;3.83;;
47329;SDS011;33060;50.178;7.570;2023-12-14T10:52:41;8.10;;;3.50;;
47329;SDS011;33060;50.178;7.570;2023-12-14T10:55:10;7.57;;;3.08;;
47329;SDS011;33060;50.178;7.570;2023-12-14T10:57:45;8.45;;;3.10;;
47329;SDS011;33060;50.178;7.570;2023-12-14T11:00:15;9.82;;;3.28;;
47329;SDS011;33060;50.178;7.570;2023-12-14T11:02:53;7.65;;;3.05;;
47329;SDS011;33060;50.178;7.570;2023-12-14T11:05:21;8.75;;;2.90;;
47329;SDS011;33060;50.178;7.570;2023-12-14T11:07:56;7.80;;;2.58;;
47329;SDS011;33060;50.178;7.570;2023-12-14T11:10:37;8.73;;;2.55;;
47329;SDS011;33060;50.178;7.570;2023-12-14T11:13:19;9.43;;;3.00;;
47329;SDS011;33060;50.178;7.570;2023-12-14T11:15:48;7.68;;;2.92;;
47329;SDS011;33060;50.178;7.570;2023-12-14T11:20:48;8.38;;;3.10;;
47329;SDS011;33060;50.178;7.570;2023-12-14T11:25:52;9.80;;;2.90;;
47329;SDS011;33060;50.178;7.570;2023-12-14T11:28:25;8.35;;;3.22;;
47329;SDS011;33060;50.178;7.570;2023-12-14T11:30:54;8.93;;;2.60;;
47329;SDS011;33060;50.178;7.570;2023-12-14T11:33:21;8.55;;;3.03;;
47329;SDS011;33060;50.178;7.570;2023-12-14T11:35:50;9.95;;;3.17;;
47329;SDS011;33060;50.178;7.570;2023-12-14T11:38:19;7.25;;;2.42;;
47329;SDS011;33060;50.178;7.570;2023-12-14T11:40:47;8.23;;;3.20;;
47329;SDS011;33060;50.178;7.570;2023-12-14T11:43:15;12.77;;;5.43;;
47329;SDS011;33060;50.178;7.570;2023-12-14T11:45:43;8.52;;;3.63;;
47329;SDS011;33060;50.178;7.570;2023-12-14T11:50:38;7.38;;;2.58;;
47329;SDS011;33060;50.178;7.570;2023-12-14T11:53:09;8.82;;;3.42;;
47329;SDS011;33060;50.178;7.570;2023-12-14T11:55:37;7.15;;;2.50;;
47329;SDS011;33060;50.178;7.570;2023-12-14T11:58:06;7.18;;;2.70;;
47329;SDS011;33060;50.178;7.570;2023-12-14T12:00:34;7.70;;;1.85;;
47329;SDS011;33060;50.178;7.570;2023-12-14T12:05:38;6.53;;;1.80;;
47329;SDS011;33060;50.178;7.570;2023-12-14T12:08:09;6.15;;;2.28;;
47329;SDS011;33060;50.178;7.570;2023-12-14T12:10:42;7.75;;;3.08;;
47329;SDS011;33060;50.178;7.570;2023-12-14T12:13:13;7.25;;;2.80;;
47329;SDS011;33060;50.178;7.570;2023-12-14T12:15:41;7.20;;;2.15;;
47329;SDS011;33060;50.178;7.570;2023-12-14T12:18:09;6.18;;;1.90;;
47329;SDS011;33060;50.178;7.570;2023-12-14T12:20:37;6.63;;;2.17;;
47329;SDS011;33060;50.178;7.570;2023-12-14T12:23:04;5.60;;;1.60;;
47329;SDS011;33060;50.178;7.570;2023-12-14T12:25:32;4.68;;;1.92;;
47329;SDS011;33060;50.178;7.570;2023-12-14T12:28:00;6.05;;;2.00;;
47329;SDS011;33060;50.178;7.570;2023-12-14T12:30:28;6.97;;;2.22;;
47329;SDS011;33060;50.178;7.570;2023-12-14T12:32:55;8.15;;;1.92;;
47329;SDS011;33060;50.178;7.570;2023-12-14T12:35:23;5.53;;;2.20;;
47329;SDS011;33060;50.178;7.570;2023-12-14T12:37:50;5.15;;;2.08;;
47329;SDS011;33060;50.178;7.570;2023-12-14T12:40:23;6.25;;;1.85;;
47329;SDS011;33060;50.178;7.570;2023-12-14T12:42:56;5.10;;;1.95;;
47329;SDS011;33060;50.178;7.570;2023-12-14T12:47:54;4.57;;;1.80;;
47329;SDS011;33060;50.178;7.570;2023-12-14T12:50:22;5.05;;;2.17;;
47329;SDS011;33060;50.178;7.570;2023-12-14T12:52:49;4.82;;;2.13;;
47329;SDS011;33060;50.178;7.570;2023-12-14T12:55:16;6.85;;;2.25;;
47329;SDS011;33060;50.178;7.570;2023-12-14T12:57:43;5.18;;;1.83;;
47329;SDS011;33060;50.178;7.570;2023-12-14T13:00:10;4.05;;;1.88;;
47329;SDS011;33060;50.178;7.570;2023-12-14T13:02:50;5.28;;;1.88;;
47329;SDS011;33060;50.178;7.570;2023-12-14T13:05:16;4.13;;;1.75;;
47329;SDS011;33060;50.178;7.570;2023-12-14T13:07:44;4.38;;;1.52;;
47329;SDS011;33060;50.178;7.570;2023-12-14T13:10:12;4.93;;;1.50;;
47329;SDS011;33060;50.178;7.570;2023-12-14T13:12:54;4.15;;;1.15;;
47329;SDS011;33060;50.178;7.570;2023-12-14T13:17:50;4.40;;;1.38;;
47329;SDS011;33060;50.178;7.570;2023-12-14T13:20:17;3.33;;;1.00;;
47329;SDS011;33060;50.178;7.570;2023-12-14T13:22:46;5.00;;;1.80;;
47329;SDS011;33060;50.178;7.570;2023-12-14T13:25:13;4.85;;;1.25;;
47329;SDS011;33060;50.178;7.570;2023-12-14T13:27:40;5.78;;;1.60;;
47329;SDS011;33060;50.178;7.570;2023-12-14T13:30:10;3.97;;;1.17;;
47329;SDS011;33060;50.178;7.570;2023-12-14T13:32:38;3.63;;;1.30;;
47329;SDS011;33060;50.178;7.570;2023-12-14T13:35:04;4.55;;;1.52;;
47329;SDS011;33060;50.178;7.570;2023-12-14T13:37:32;5.63;;;1.70;;
47329;SDS011;33060;50.178;7.570;2023-12-14T13:39:59;5.13;;;1.80;;
47329;SDS011;33060;50.178;7.570;2023-12-14T13:42:26;5.57;;;2.60;;
47329;SDS011;33060;50.178;7.570;2023-12-14T13:44:53;4.72;;;1.80;;
47329;SDS011;33060;50.178;7.570;2023-12-14T13:47:19;4.57;;;1.55;;
47329;SDS011;33060;50.178;7.570;2023-12-14T13:49:46;4.50;;;1.75;;
47329;SDS011;33060;50.178;7.570;2023-12-14T13:52:13;5.43;;;2.17;;
47329;SDS011;33060;50.178;7.570;2023-12-14T13:54:40;4.93;;;1.98;;
47329;SDS011;33060;50.178;7.570;2023-12-14T13:57:06;5.22;;;1.60;;
47329;SDS011;33060;50.178;7.570;2023-12-14T13:59:33;5.05;;;2.13;;
47329;SDS011;33060;50.178;7.570;2023-12-14T14:04:27;5.00;;;1.52;;
47329;SDS011;33060;50.178;7.570;2023-12-14T14:06:53;5.03;;;2.08;;
47329;SDS011;33060;50.178;7.570;2023-12-14T14:09:20;5.57;;;1.65;;
47329;SDS011;33060;50.178;7.570;2023-12-14T14:11:47;5.65;;;2.30;;
47329;SDS011;33060;50.178;7.570;2023-12-14T14:14:15;8.10;;;3.47;;
47329;SDS011;33060;50.178;7.570;2023-12-14T14:16:42;6.65;;;2.80;;
47329;SDS011;33060;50.178;7.570;2023-12-14T14:19:09;5.40;;;2.65;;
47329;SDS011;33060;50.178;7.570;2023-12-14T14:21:36;6.47;;;2.15;;
47329;SDS011;33060;50.178;7.570;2023-12-14T14:24:03;4.65;;;1.75;;
47329;SDS011;33060;50.178;7.570;2023-12-14T14:26:30;6.13;;;2.28;;
47329;SDS011;33060;50.178;7.570;2023-12-14T14:28:57;5.28;;;1.73;;
47329;SDS011;33060;50.178;7.570;2023-12-14T14:31:28;4.55;;;1.45;;
47329;SDS011;33060;50.178;7.570;2023-12-14T14:33:58;6.35;;;2.35;;
47329;SDS011;33060;50.178;7.570;2023-12-14T14:36:26;8.32;;;2.53;;
47329;SDS011;33060;50.178;7.570;2023-12-14T14:38:53;8.52;;;3.55;;
47329;SDS011;33060;50.178;7.570;2023-12-14T14:41:21;6.22;;;2.72;;
47329;SDS011;33060;50.178;7.570;2023-12-14T14:43:48;6.72;;;2.63;;
47329;SDS011;33060;50.178;7.570;2023-12-14T14:46:14;6.93;;;2.95;;
47329;SDS011;33060;50.178;7.570;2023-12-14T14:48:42;7.60;;;1.80;;
47329;SDS011;33060;50.178;7.570;2023-12-14T14:51:10;5.88;;;2.13;;
47329;SDS011;33060;50.178;7.570;2023-12-14T14:53:36;5.55;;;1.60;;
47329;SDS011;33060;50.178;7.570;2023-12-14T14:58:30;5.82;;;2.20;;
47329;SDS011;33060;50.178;7.570;2023-12-14T15:00:57;6.30;;;2.28;;
47329;SDS011;33060;50.178;7.570;2023-12-14T15:03:24;7.32;;;2.42;;
47329;SDS011;33060;50.178;7.570;2023-12-14T15:05:51;7.68;;;2.58;;
47329;SDS011;33060;50.178;7.570;2023-12-14T15:08:17;5.97;;;2.53;;
47329;SDS011;33060;50.178;7.570;2023-12-14T15:10:44;5.28;;;2.00;;
47329;SDS011;33060;50.178;7.570;2023-12-14T15:13:11;5.22;;;1.80;;
47329;SDS011;33060;50.178;7.570;2023-12-14T15:15:38;4.80;;;1.92;;
47329;SDS011;33060;50.178;7.570;2023-12-14T15:18:05;5.25;;;2.47;;
47329;SDS011;33060;50.178;7.570;2023-12-14T15:20:32;7.07;;;2.33;;
47329;SDS011;33060;50.178;7.570;2023-12-14T15:22:59;7.22;;;2.33;;
47329;SDS011;33060;50.178;7.570;2023-12-14T15:25:25;4.50;;;1.75;;
47329;SDS011;33060;50.178;7.570;2023-12-14T15:27:53;6.60;;;2.20;;
47329;SDS011;33060;50.178;7.570;2023-12-14T15:30:19;5.10;;;1.77;;
47329;SDS011;33060;50.178;7.570;2023-12-14T15:32:46;5.85;;;2.33;;
47329;SDS011;33060;50.178;7.570;2023-12-14T15:35:13;6.38;;;2.42;;
47329;SDS011;33060;50.178;7.570;2023-12-14T15:37:40;6.68;;;2.20;;
47329;SDS011;33060;50.178;7.570;2023-12-14T15:40:07;6.72;;;2.05;;
47329;SDS011;33060;50.178;7.570;2023-12-14T15:42:35;10.05;;;2.40;;
47329;SDS011;33060;50.178;7.570;2023-12-14T15:47:35;8.15;;;2.70;;
47329;SDS011;33060;50.178;7.570;2023-12-14T15:50:02;5.50;;;2.38;;
47329;SDS011;33060;50.178;7.570;2023-12-14T15:52:29;6.05;;;2.17;;
47329;SDS011;33060;50.178;7.570;2023-12-14T15:54:56;6.88;;;2.38;;
47329;SDS011;33060;50.178;7.570;2023-12-14T15:57:22;7.72;;;2.90;;
47329;SDS011;33060;50.178;7.570;2023-12-14T15:59:49;6.68;;;2.50;;
47329;SDS011;33060;50.178;7.570;2023-12-14T16:02:16;6.88;;;2.78;;
47329;SDS011;33060;50.178;7.570;2023-12-14T16:04:42;10.77;;;4.82;;
47329;SDS011;33060;50.178;7.570;2023-12-14T16:07:11;10.73;;;4.05;;
47329;SDS011;33060;50.178;7.570;2023-12-14T16:09:38;7.03;;;2.67;;
47329;SDS011;33060;50.178;7.570;2023-12-14T16:12:04;6.30;;;2.05;;